Relatórios de METAR próximas

 

LPAR - Alverca, Portugal
Distance from station: SO 47km
Actualizado: 19/10/2018 17:00
NÃO Actual
Parc. Nublado
Parc. Nublado
 Vento de ENE
Vento: ENE 7 km/h
Temperatura: 24°C
Ponto de Orvalho: 13°C
Humidade: 50%
Barómetro: 1011 hPa
Nuvens: Parc. Nublado
Visibilidade: 10 km
Cloud details: Parc. Nublado 1219 m
2018/10/19 16:00 LPAR 191600Z 07004KT 9999 SCT040 24/13 Q1011
LPPT - Lisbon/Portela, Portugal
Distance from station: SO 61km
Actualizado: 22/10/2018 03:30
Few Clouds
Few Clouds
 Vento de NNE
Vento: NNE 6 km/h
Temperatura: 15°C
Ponto de Orvalho: 13°C
Humidade: 88%
Barómetro: 1019 hPa
Nuvens: Few Clouds
Visibilidade: 10 km
Cloud details: Few Clouds 366 m
2018/10/22 02:30 LPPT 220230Z 03003KT 9999 FEW012 15/13 Q1019
 
LPMT - Montijo (por-Afb, Portugal
Distance from station: SO 62km
Actualizado: 22/10/2018 04:00
Shallow Fog
Shallow Fog
 Vento de NE
Vento: NE 6 km/h
Temperatura: 13°C
Ponto de Orvalho: 13°C
Humidade: 100%
Barómetro: 1019 hPa
Resumo: Shallow Fog
Visibilidade: 10 km
2018/10/22 03:00 LPMT 220300Z 04003KT 9999 MIFG 13/13 Q1019
LPST - Sintra/Granja (a, Portugal
Distance from station: OSO 72km
Actualizado: 20/10/2018 15:00
NÃO Actual
Parc. Nublado
Parc. Nublado
 Vento de ESE
Vento: ESE 15 km/h
Temperatura: 23°C
Ponto de Orvalho: 12°C
Humidade: 50%
Barómetro: 1015 hPa
Nuvens: Parc. Nublado
Visibilidade: 10 km
Cloud details: Parc. Nublado 914 m
2018/10/20 14:00 LPST 201400Z 11008KT 9999 SCT030 23/12 Q1015
 
LPMR - Monte Real(Por-A, Portugal
Distance from station: NNO 80km
Actualizado: 22/10/2018 04:00
Few Clouds
Few Clouds
 Vento de S
Vento: S 6 km/h
Temperatura: 15°C
Ponto de Orvalho: 14°C
Humidade: 94%
Barómetro: 1020 hPa
Nuvens: Few Clouds
Visibilidade: 10 km
Cloud details: Few Clouds 671 m
2018/10/22 03:00 LPMR 220300Z 17003KT 9999 FEW022 15/14 Q1020
LPBJ - Beja (por/Ger-Af, Portugal
Distance from station: SSE 139km
Actualizado: 22/10/2018 04:00
Parc. Nublado
Parc. Nublado
 Vento de E
Vento: E 4 km/h
Temperatura: 13°C
Ponto de Orvalho: 12°C
Humidade: 94%
Barómetro: 1020 hPa
Nuvens: Parc. Nublado
Visibilidade: 10 km
Cloud details: Parc. Nublado 457 m
2018/10/22 03:00 LPBJ 220300Z 09002KT 9999 SCT015 13/12 Q1020